createdAt,value
2018-11-20T00:02:25.659Z,81.82
2018-11-20T00:05:04.696Z,81.93
2018-11-20T00:07:52.104Z,82.14
2018-11-20T00:10:39.337Z,82.36
2018-11-20T00:13:21.618Z,83.15
2018-11-20T00:16:10.337Z,83.32
2018-11-20T00:19:01.688Z,83.39
2018-11-20T00:21:52.997Z,83.69
2018-11-20T00:24:40.605Z,84.26
2018-11-20T00:27:27.835Z,83.71
2018-11-20T00:30:15.320Z,84.02
2018-11-20T00:32:55.962Z,84.24
2018-11-20T00:35:43.271Z,84.41
2018-11-20T00:38:40.737Z,84.25
2018-11-20T00:41:28.048Z,84.05
2018-11-20T00:44:22.917Z,84.25
2018-11-20T00:47:10.078Z,84.35
2018-11-20T00:50:01.456Z,84.60
2018-11-20T00:52:48.444Z,84.54
2018-11-20T00:56:18.046Z,84.76
2018-11-20T00:58:59.233Z,85.05
2018-11-20T01:01:46.534Z,84.82
2018-11-20T01:04:39.742Z,85.02
2018-11-20T01:07:46.760Z,85.08
2018-11-20T01:10:44.427Z,85.08
2018-11-20T01:13:35.644Z,84.82
2018-11-20T01:16:23.057Z,84.34
2018-11-20T01:19:10.202Z,83.66
2018-11-20T01:22:17.014Z,83.12
2018-11-20T01:25:05.674Z,83.48
2018-11-20T01:28:03.330Z,83.50
2018-11-20T01:30:50.471Z,83.18
2018-11-20T01:33:37.794Z,82.89
2018-11-20T01:36:19.930Z,82.99
2018-11-20T01:39:23.888Z,82.65
2018-11-20T01:42:04.268Z,82.74
2018-11-20T01:44:51.372Z,82.99
2018-11-20T01:47:43.276Z,83.13
2018-11-20T01:50:40.802Z,82.73
2018-11-20T01:53:32.580Z,82.92
2018-11-20T01:56:21.095Z,82.64
2018-11-20T01:59:01.148Z,82.71
2018-11-20T02:01:49.999Z,82.70
2018-11-20T02:04:37.289Z,82.80
2018-11-20T02:07:30.981Z,82.93
2018-11-20T02:10:18.047Z,83.23
2018-11-20T02:13:40.926Z,82.72
2018-11-20T02:16:28.128Z,82.82
2018-11-20T02:19:16.884Z,83.10
2018-11-20T02:22:02.974Z,83.26
2018-11-20T02:24:57.528Z,83.45
2018-11-20T02:28:04.187Z,83.64
2018-11-20T02:31:04.765Z,83.90
2018-11-20T02:33:53.248Z,84.13
2018-11-20T02:36:43.965Z,84.52
2018-11-20T02:39:31.252Z,84.68
2018-11-20T02:42:35.112Z,84.77
2018-11-20T02:45:29.771Z,85.17
2018-11-20T02:48:36.492Z,85.39
2018-11-20T02:51:43.225Z,84.33
2018-11-20T02:54:30.403Z,84.05
2018-11-20T02:57:11.980Z,84.07
2018-11-20T03:00:03.459Z,84.15
2018-11-20T03:03:03.942Z,84.15
2018-11-20T03:05:44.307Z,84.10
2018-11-20T03:08:35.755Z,84.30
2018-11-20T03:11:33.264Z,84.14
2018-11-20T03:14:20.414Z,84.42
2018-11-20T03:17:09.054Z,84.58
2018-11-20T03:19:56.690Z,84.09
2018-11-20T03:22:44.134Z,83.77
2018-11-20T03:26:09.742Z,83.76
2018-11-20T03:29:31.879Z,83.59
2018-11-20T03:32:35.537Z,83.31
2018-11-20T03:35:22.651Z,83.06
2018-11-20T03:38:09.905Z,83.02
2018-11-20T03:41:01.235Z,83.02
2018-11-20T03:43:48.169Z,83.08
2018-11-20T03:46:48.826Z,82.39
2018-11-20T03:49:55.610Z,82.11
2018-11-20T03:52:59.129Z,82.37
2018-11-20T03:55:44.759Z,82.89
2018-11-20T03:58:36.013Z,83.21
2018-11-20T04:01:27.543Z,83.13
2018-11-20T04:04:08.404Z,82.83
2018-11-20T04:07:08.788Z,83.29
2018-11-20T04:09:49.097Z,83.32
2018-11-20T04:12:52.910Z,83.00
2018-11-20T04:15:59.581Z,83.06
2018-11-20T04:18:59.906Z,83.49
2018-11-20T04:21:47.127Z,84.13
2018-11-20T04:24:34.670Z,84.27
2018-11-20T04:27:21.987Z,83.93
2018-11-20T04:30:37.453Z,83.00
2018-11-20T04:34:02.937Z,82.80
2018-11-20T04:37:03.951Z,82.17
2018-11-20T04:39:51.215Z,82.35
2018-11-20T04:42:38.349Z,82.98
2018-11-20T04:45:25.975Z,82.99
2018-11-20T04:48:23.507Z,83.38
2018-11-20T04:51:08.432Z,83.77
2018-11-20T04:54:05.042Z,83.58
2018-11-20T04:57:02.697Z,82.75
2018-11-20T05:00:06.340Z,82.15
2018-11-20T05:02:44.260Z,82.46
2018-11-20T05:05:42.019Z,82.73
2018-11-20T05:08:45.710Z,83.11
2018-11-20T05:11:22.077Z,82.29
2018-11-20T05:14:26.058Z,82.35
2018-11-20T05:17:17.652Z,82.67
2018-11-20T05:20:21.396Z,82.36
2018-11-20T05:23:08.992Z,81.94
2018-11-20T05:26:03.537Z,81.47
2018-11-20T05:28:50.480Z,81.88
2018-11-20T05:31:37.690Z,81.61
2018-11-20T05:34:29.152Z,81.95
2018-11-20T05:37:16.169Z,82.46
2018-11-20T05:40:03.343Z,82.90
2018-11-20T05:42:54.847Z,83.50
2018-11-20T05:45:43.440Z,83.91
2018-11-20T05:48:47.078Z,84.31
2018-11-20T05:51:50.900Z,84.14
2018-11-20T05:54:38.602Z,84.49
2018-11-20T05:57:26.452Z,84.49
2018-11-20T06:00:05.669Z,84.36
2018-11-20T06:02:52.850Z,84.01
2018-11-20T06:05:39.577Z,83.82
2018-11-20T06:08:40.040Z,83.57
2018-11-20T06:11:47.046Z,82.83
2018-11-20T06:14:44.930Z,82.51
2018-11-20T06:17:31.929Z,82.72
2018-11-20T06:20:09.187Z,83.04
2018-11-20T06:22:57.840Z,83.14
2018-11-20T06:25:52.653Z,83.17
2018-11-20T06:28:41.383Z,82.86
2018-11-20T06:31:28.492Z,82.84
2018-11-20T06:34:15.733Z,82.83
2018-11-20T06:37:10.164Z,82.73
2018-11-20T06:40:03.373Z,82.27
2018-11-20T06:42:57.813Z,81.80
2018-11-20T06:45:54.091Z,81.80
2018-11-20T06:48:59.324Z,82.24
2018-11-20T06:51:50.864Z,83.58
2018-11-20T06:54:38.306Z,84.44
2018-11-20T06:57:38.844Z,84.83
2018-11-20T07:00:39.862Z,85.31
2018-11-20T07:03:46.530Z,85.50
2018-11-20T07:06:44.122Z,85.25
2018-11-20T07:09:50.928Z,84.92
2018-11-20T07:12:54.689Z,84.57
2018-11-20T07:15:42.256Z,83.55
2018-11-20T07:18:30.349Z,83.44
2018-11-20T07:21:19.046Z,83.46
2018-11-20T07:24:04.269Z,83.35
2018-11-20T07:26:51.607Z,83.37
2018-11-20T07:29:38.985Z,83.36
2018-11-20T07:32:33.508Z,83.36
2018-11-20T07:35:31.362Z,83.12
2018-11-20T07:38:22.802Z,83.18
2018-11-20T07:41:09.921Z,82.76
2018-11-20T07:43:57.446Z,82.32
2018-11-20T07:46:44.402Z,82.76
2018-11-20T07:49:35.613Z,82.64
2018-11-20T07:52:23.006Z,82.69
2018-11-20T07:55:10.255Z,83.41
2018-11-20T07:57:57.542Z,83.29
2018-11-20T08:00:51.942Z,83.36
2018-11-20T08:03:43.017Z,82.55
2018-11-20T08:06:30.336Z,82.08
2018-11-20T08:09:27.756Z,82.29
2018-11-20T08:12:14.795Z,82.05
2018-11-20T08:15:01.971Z,81.93
2018-11-20T08:18:00.125Z,81.62
2018-11-20T08:20:44.876Z,81.39
2018-11-20T08:23:42.235Z,80.57
2018-11-20T08:26:33.619Z,80.85
2018-11-20T08:29:20.863Z,80.05
2018-11-20T08:32:19.286Z,79.84
2018-11-20T08:35:14.757Z,79.45
2018-11-20T08:38:09.133Z,78.60
2018-11-20T08:40:56.431Z,78.10
2018-11-20T08:43:43.583Z,77.65
2018-11-20T08:46:41.064Z,77.42
2018-11-20T08:49:45.011Z,78.00
2018-11-20T08:52:48.665Z,77.45
2018-11-20T08:55:35.834Z,77.52
2018-11-20T08:58:23.721Z,77.79
2018-11-20T09:01:10.951Z,78.35
2018-11-20T09:04:17.939Z,78.19
2018-11-20T09:07:12.198Z,78.59
2018-11-20T09:09:59.204Z,78.33
2018-11-20T09:12:46.520Z,76.97
2018-11-20T09:15:35.192Z,76.99
2018-11-20T09:18:22.251Z,77.87
2018-11-20T09:21:04.732Z,78.60
2018-11-20T09:23:50.094Z,78.66
2018-11-20T09:26:49.306Z,78.26
2018-11-20T09:29:40.715Z,77.83
2018-11-20T09:32:19.270Z,77.26
2018-11-20T09:35:11.041Z,76.81
2018-11-20T09:38:08.287Z,76.73
2018-11-20T09:41:12.993Z,76.33
2018-11-20T09:44:14.804Z,76.11
2018-11-20T09:47:21.394Z,76.43
2018-11-20T09:50:22.275Z,76.73
2018-11-20T09:53:09.842Z,77.41
2018-11-20T09:56:07.241Z,77.96
2018-11-20T09:59:11.074Z,78.22
2018-11-20T10:01:59.600Z,77.64
2018-11-20T10:04:46.387Z,77.41
2018-11-20T10:07:50.044Z,77.21
2018-11-20T10:10:47.265Z,77.67
2018-11-20T10:13:42.161Z,77.54
2018-11-20T10:16:35.140Z,77.35
2018-11-20T10:19:29.707Z,77.34
2018-11-20T10:22:27.283Z,77.44
2018-11-20T10:25:24.973Z,77.31
2018-11-20T10:28:28.788Z,76.98
2018-11-20T10:31:16.158Z,77.32
2018-11-20T10:34:19.977Z,77.39
2018-11-20T10:37:23.399Z,77.49
2018-11-20T10:40:07.130Z,77.60
2018-11-20T10:43:04.582Z,77.87
2018-11-20T10:46:40.619Z,78.02
2018-11-20T10:49:37.320Z,78.31
2018-11-20T10:52:25.227Z,78.25
2018-11-20T10:55:19.233Z,78.01
2018-11-20T10:58:05.696Z,77.50
2018-11-20T11:00:52.310Z,77.25
2018-11-20T11:03:38.991Z,76.89
2018-11-20T11:06:25.856Z,76.87
2018-11-20T11:09:12.319Z,76.41
2018-11-20T11:12:18.560Z,76.57
2018-11-20T11:15:18.603Z,76.67
2018-11-20T11:18:21.665Z,76.60
2018-11-20T11:21:07.276Z,76.59
2018-11-20T11:23:53.525Z,76.76
2018-11-20T11:26:47.426Z,77.11
2018-11-20T11:29:35.254Z,76.71
2018-11-20T11:32:31.875Z,76.58
2018-11-20T11:35:22.221Z,76.32
2018-11-20T11:38:22.023Z,75.78
2018-11-20T11:41:05.015Z,75.67
2018-11-20T11:43:52.793Z,75.51
2018-11-20T11:46:40.466Z,75.24
2018-11-20T11:49:46.340Z,75.02
2018-11-20T11:52:52.592Z,75.06
2018-11-20T11:55:39.225Z,75.21
2018-11-20T11:58:35.968Z,75.54
2018-11-20T12:01:23.271Z,75.76
2018-11-20T12:06:50.599Z,76.01
2018-11-20T12:09:38.187Z,76.33
2018-11-20T12:12:23.293Z,76.28
2018-11-20T12:15:08.799Z,75.37
2018-11-20T12:17:53.596Z,76.18
2018-11-20T12:20:33.733Z,77.29
2018-11-20T12:23:20.016Z,78.13
2018-11-20T12:26:06.813Z,78.84
2018-11-20T12:28:57.960Z,78.87
2018-11-20T12:31:45.540Z,78.95
2018-11-20T12:34:51.358Z,78.90
2018-11-20T12:37:37.838Z,79.04
2018-11-20T12:40:29.001Z,78.58
2018-11-20T12:43:35.663Z,78.66
2018-11-20T12:46:16.393Z,78.90
2018-11-20T12:49:07.408Z,79.36
2018-11-20T12:51:58.101Z,78.91
2018-11-20T12:54:44.517Z,78.94
2018-11-20T12:57:19.245Z,79.17
2018-11-20T13:00:12.734Z,78.48
2018-11-20T13:02:59.340Z,77.99
2018-11-20T13:05:59.372Z,78.57
2018-11-20T13:09:06.115Z,79.29
2018-11-20T13:11:53.895Z,79.64
2018-11-20T13:14:50.871Z,79.40
2018-11-20T13:17:33.637Z,80.06
2018-11-20T13:20:29.634Z,79.99
2018-11-20T13:23:16.954Z,79.54
2018-11-20T13:26:03.396Z,79.28
2018-11-20T13:28:51.110Z,79.38
2018-11-20T13:31:44.537Z,79.79
2018-11-20T13:34:44.182Z,80.40
2018-11-20T13:37:27.342Z,80.62
2018-11-20T13:40:23.989Z,79.54
2018-11-20T13:43:04.281Z,79.65
2018-11-20T13:45:43.743Z,80.13
2018-11-20T13:48:30.774Z,79.81
2018-11-20T13:51:08.959Z,79.96
2018-11-20T13:54:00.762Z,80.24
2018-11-20T13:56:52.606Z,79.10
2018-11-20T13:59:40.416Z,79.74
2018-11-20T14:02:26.798Z,80.25
2018-11-20T14:05:13.216Z,80.21
2018-11-20T14:08:19.477Z,79.99
2018-11-20T14:11:06.119Z,79.88
2018-11-20T14:13:46.669Z,79.70
2018-11-20T14:16:34.538Z,79.28
2018-11-20T14:19:21.124Z,79.61
2018-11-20T14:22:24.008Z,79.82
2018-11-20T14:25:06.458Z,79.47
2018-11-20T14:28:04.057Z,79.79
2018-11-20T14:31:01.016Z,80.15
2018-11-20T14:34:06.865Z,80.35
2018-11-20T14:36:58.015Z,80.76
2018-11-20T14:39:48.634Z,81.05
2018-11-20T14:42:39.368Z,81.17
2018-11-20T14:45:45.043Z,80.58
2018-11-20T14:48:31.416Z,80.09
2018-11-20T14:51:23.482Z,80.78
2018-11-20T14:54:09.667Z,80.71
2018-11-20T14:57:03.758Z,80.07
2018-11-20T14:59:50.649Z,80.32
2018-11-20T15:02:37.109Z,80.42
2018-11-20T15:05:37.434Z,80.54
2018-11-20T15:08:22.130Z,80.22
2018-11-20T15:11:25.416Z,80.57
2018-11-20T15:14:28.215Z,81.07
2018-11-20T15:17:16.700Z,81.53
2018-11-20T15:20:03.258Z,81.61
2018-11-20T15:22:53.823Z,81.85
2018-11-20T15:25:49.125Z,81.97
2018-11-20T15:28:37.012Z,81.53
2018-11-20T15:31:36.813Z,81.63
2018-11-20T15:34:33.856Z,82.00
2018-11-20T15:37:24.432Z,81.44
2018-11-20T15:40:10.887Z,81.42
2018-11-20T15:43:17.045Z,81.75
2018-11-20T15:46:04.905Z,81.98
2018-11-20T15:48:49.832Z,82.24
2018-11-20T15:51:43.793Z,82.60
2018-11-20T15:54:30.147Z,82.73
2018-11-20T15:57:35.823Z,82.93
2018-11-20T16:00:26.627Z,83.04
2018-11-20T16:03:29.753Z,83.44
2018-11-20T16:06:23.892Z,83.46
2018-11-20T16:09:11.605Z,83.21
2018-11-20T16:11:58.279Z,83.37
2018-11-20T16:14:44.461Z,83.36
2018-11-20T16:17:25.133Z,83.24
2018-11-20T16:20:25.163Z,83.07
2018-11-20T16:23:19.022Z,82.80
2018-11-20T16:26:06.854Z,82.41
2018-11-20T16:29:00.746Z,81.25
2018-11-20T16:31:47.398Z,81.14
2018-11-20T16:34:27.507Z,81.73
2018-11-20T16:37:17.978Z,82.12
2018-11-20T16:40:04.206Z,82.76
2018-11-20T16:42:52.038Z,82.91
2018-11-20T16:45:37.823Z,83.37
2018-11-20T16:48:25.747Z,83.84
2018-11-20T16:51:16.889Z,83.87
2018-11-20T16:54:19.716Z,83.80
2018-11-20T16:57:25.417Z,84.22
2018-11-20T17:00:12.071Z,84.65
2018-11-20T17:02:58.631Z,84.72
2018-11-20T17:05:52.356Z,84.40
2018-11-20T17:08:58.095Z,84.20
2018-11-20T17:11:48.861Z,83.72
2018-11-20T17:14:37.149Z,83.56
2018-11-20T17:17:23.363Z,82.70
2018-11-20T17:20:07.406Z,82.83
2018-11-20T17:23:08.333Z,82.95
2018-11-20T17:25:53.716Z,83.36
2018-11-20T17:28:36.058Z,84.10
2018-11-20T17:31:31.503Z,84.89
2018-11-20T17:34:18.043Z,85.54
2018-11-20T17:37:11.840Z,85.85
2018-11-20T17:39:59.720Z,86.22
2018-11-20T17:42:46.342Z,86.59
2018-11-20T17:45:32.033Z,87.14
2018-11-20T17:48:18.966Z,87.42
2018-11-20T17:51:21.978Z,87.06
2018-11-20T17:54:12.303Z,86.55
2018-11-20T17:57:04.489Z,86.28
2018-11-20T18:00:01.178Z,86.48
2018-11-20T18:02:58.178Z,86.99
2018-11-20T18:05:44.589Z,87.78
2018-11-20T18:08:25.468Z,88.29
2018-11-20T18:11:11.743Z,88.78
2018-11-20T18:13:53.385Z,88.75
2018-11-20T18:16:40.463Z,88.99
2018-11-20T18:19:27.131Z,89.32
2018-11-20T18:22:24.110Z,89.11
2018-11-20T18:25:18.018Z,89.17
2018-11-20T18:28:03.598Z,89.27
2018-11-20T18:31:06.760Z,89.52
2018-11-20T18:33:54.587Z,89.50
2018-11-20T18:36:54.877Z,89.21
2018-11-20T18:39:48.544Z,89.34
2018-11-20T18:42:38.411Z,89.33
2018-11-20T18:45:33.131Z,89.29
2018-11-20T18:48:26.549Z,88.99
2018-11-20T18:51:12.913Z,88.53
2018-11-20T18:54:03.117Z,87.78
2018-11-20T18:56:50.745Z,87.08
2018-11-20T18:59:44.099Z,87.23
2018-11-20T19:02:34.809Z,87.47
2018-11-20T19:05:22.760Z,87.78
2018-11-20T19:08:11.902Z,88.17
2018-11-20T19:10:59.797Z,88.59
2018-11-20T19:13:53.893Z,89.09
2018-11-20T19:16:36.444Z,89.20
2018-11-20T19:19:24.579Z,89.37
2018-11-20T19:22:10.993Z,89.67
2018-11-20T19:24:56.220Z,89.86
2018-11-20T19:27:44.621Z,89.57
2018-11-20T19:30:38.344Z,89.21
2018-11-20T19:33:30.911Z,88.82
2018-11-20T19:36:24.670Z,88.21
2018-11-20T19:39:11.557Z,88.29
2018-11-20T19:42:08.224Z,87.20
2018-11-20T19:44:58.962Z,86.78
2018-11-20T19:47:45.762Z,86.66
2018-11-20T19:50:36.559Z,87.16
2018-11-20T19:53:30.372Z,87.35
2018-11-20T19:56:16.914Z,87.46
2018-11-20T19:59:10.898Z,87.45
2018-11-20T20:01:57.272Z,86.80
2018-11-20T20:04:43.374Z,86.64
2018-11-20T20:07:37.089Z,86.96
2018-11-20T20:10:37.319Z,87.16
2018-11-20T20:13:28.737Z,87.25
2018-11-20T20:16:10.750Z,87.19
2018-11-20T20:18:57.127Z,86.97
2018-11-20T20:21:43.934Z,86.75
2018-11-20T20:24:30.488Z,86.57
2018-11-20T20:27:17.013Z,86.16
2018-11-20T20:30:03.804Z,85.48
2018-11-20T20:32:57.601Z,84.94
2018-11-20T20:35:48.042Z,85.16
2018-11-20T20:38:35.944Z,85.27
2018-11-20T20:41:26.895Z,85.47
2018-11-20T20:44:13.420Z,85.41
2018-11-20T20:47:00.299Z,85.08
2018-11-20T20:49:50.953Z,85.02
2018-11-20T20:52:37.587Z,84.71
2018-11-20T20:55:28.951Z,84.66
2018-11-20T20:58:19.426Z,84.15
2018-11-20T21:01:06.061Z,84.54
2018-11-20T21:03:52.823Z,84.99
2018-11-20T21:06:36.833Z,84.81
2018-11-20T21:09:26.818Z,84.60
2018-11-20T21:12:14.701Z,84.74
2018-11-20T21:15:08.296Z,84.56
2018-11-20T21:17:54.403Z,84.94
2018-11-20T21:20:41.075Z,85.49
2018-11-20T21:23:21.220Z,85.72
2018-11-20T21:26:11.896Z,85.69
2018-11-20T21:29:17.533Z,85.65
2018-11-20T21:32:03.773Z,84.88
2018-11-20T21:34:55.135Z,84.92
2018-11-20T21:37:36.713Z,85.10
2018-11-20T21:40:40.305Z,85.37
2018-11-20T21:43:37.017Z,85.47
2018-11-20T21:46:23.626Z,85.33
2018-11-20T21:49:17.565Z,85.81
2018-11-20T21:52:14.305Z,85.49
2018-11-20T21:55:04.588Z,85.71
2018-11-20T21:57:49.037Z,85.36
2018-11-20T22:00:50.542Z,85.75
2018-11-20T22:03:37.177Z,85.73
2018-11-20T22:06:24.020Z,86.04
2018-11-20T22:09:24.161Z,86.30
2018-11-20T22:12:14.809Z,86.58
2018-11-20T22:14:56.642Z,86.99
2018-11-20T22:17:50.460Z,87.14
2018-11-20T22:20:50.003Z,86.98
2018-11-20T22:23:43.773Z,87.07
2018-11-20T22:26:22.967Z,86.27
2018-11-20T22:29:19.841Z,86.28
2018-11-20T22:32:06.412Z,86.70
2018-11-20T22:34:54.991Z,86.68
2018-11-20T22:37:45.482Z,86.57
2018-11-20T22:40:42.395Z,86.40
2018-11-20T22:43:31.242Z,86.47
2018-11-20T22:46:36.978Z,86.76
2018-11-20T22:49:40.338Z,87.06
2018-11-20T22:52:19.718Z,87.47
2018-11-20T22:55:10.441Z,88.00
2018-11-20T22:58:08.960Z,88.27
2018-11-20T23:01:03.969Z,87.69
2018-11-20T23:03:45.151Z,87.85
2018-11-20T23:06:31.668Z,87.27
2018-11-20T23:09:00.542Z,87.16
2018-11-20T23:11:29.277Z,86.68
2018-11-20T23:13:57.969Z,86.59
2018-11-20T23:16:26.803Z,86.60
2018-11-20T23:18:55.550Z,86.96
2018-11-20T23:21:24.452Z,86.62
2018-11-20T23:23:53.252Z,86.75
2018-11-20T23:26:22.112Z,87.03
2018-11-20T23:28:50.956Z,87.25
2018-11-20T23:31:19.833Z,87.31
2018-11-20T23:33:48.772Z,87.18
2018-11-20T23:36:17.501Z,86.97
2018-11-20T23:38:46.395Z,86.45
2018-11-20T23:41:15.082Z,85.65
2018-11-20T23:43:43.879Z,85.19
2018-11-20T23:46:12.687Z,85.48
2018-11-20T23:48:41.592Z,85.44
2018-11-20T23:51:10.450Z,85.30
2018-11-20T23:53:39.332Z,85.85
2018-11-20T23:56:08.127Z,86.71
2018-11-20T23:58:36.999Z,87.29
